sensor_id;sensor_type;location;lat;lon;timestamp;pressure;altitude;pressure_sealevel;temperature;humidity
6899;BME280;3488;42.616;23.350;2023-04-05T00:01:54;61921.13;;;-0.76;100.00
6899;BME280;3488;42.616;23.350;2023-04-05T00:04:23;61924.72;;;-0.73;100.00
6899;BME280;3488;42.616;23.350;2023-04-05T00:06:51;61943.69;;;-0.52;100.00
6899;BME280;3488;42.616;23.350;2023-04-05T00:09:19;61955.94;;;-0.42;100.00
6899;BME280;3488;42.616;23.350;2023-04-05T00:11:46;61934.44;;;-0.63;100.00
6899;BME280;3488;42.616;23.350;2023-04-05T00:14:14;61946.78;;;-0.49;100.00
6899;BME280;3488;42.616;23.350;2023-04-05T00:16:41;61945.59;;;-0.57;100.00
6899;BME280;3488;42.616;23.350;2023-04-05T00:19:08;61950.75;;;-0.50;100.00
6899;BME280;3488;42.616;23.350;2023-04-05T00:21:38;61941.56;;;-0.59;100.00
6899;BME280;3488;42.616;23.350;2023-04-05T00:24:07;61949.22;;;-0.51;100.00
6899;BME280;3488;42.616;23.350;2023-04-05T00:26:40;61950.31;;;-0.48;100.00
6899;BME280;3488;42.616;23.350;2023-04-05T00:29:09;61942.13;;;-0.56;100.00
6899;BME280;3488;42.616;23.350;2023-04-05T00:31:36;61930.28;;;-0.70;100.00
6899;BME280;3488;42.616;23.350;2023-04-05T00:34:03;61937.00;;;-0.61;100.00
6899;BME280;3488;42.616;23.350;2023-04-05T00:36:37;61926.13;;;-0.76;100.00
6899;BME280;3488;42.616;23.350;2023-04-05T00:39:04;61920.16;;;-0.75;100.00
6899;BME280;3488;42.616;23.350;2023-04-05T00:41:32;61898.66;;;-0.96;100.00
6899;BME280;3488;42.616;23.350;2023-04-05T00:44:03;61935.06;;;-0.58;100.00
6899;BME280;3488;42.616;23.350;2023-04-05T00:46:33;61887.38;;;-1.07;100.00
6899;BME280;3488;42.616;23.350;2023-04-05T00:49:04;61918.56;;;-0.79;100.00
6899;BME280;3488;42.616;23.350;2023-04-05T00:51:32;61942.13;;;-0.56;100.00
6899;BME280;3488;42.616;23.350;2023-04-05T00:54:02;61928.78;;;-0.69;100.00
6899;BME280;3488;42.616;23.350;2023-04-05T00:56:48;61902.13;;;-0.97;100.00
6899;BME280;3488;42.616;23.350;2023-04-05T00:59:22;61895.53;;;-1.01;100.00
6899;BME280;3488;42.616;23.350;2023-04-05T01:02:08;61941.16;;;-0.54;100.00
6899;BME280;3488;42.616;23.350;2023-04-05T01:04:43;61937.97;;;-0.62;100.00
6899;BME280;3488;42.616;23.350;2023-04-05T01:07:24;61939.50;;;-0.61;100.00
6899;BME280;3488;42.616;23.350;2023-04-05T01:09:56;61942.06;;;-0.58;100.00
6899;BME280;3488;42.616;23.350;2023-04-05T01:12:32;61944.28;;;-0.49;100.00
6899;BME280;3488;42.616;23.350;2023-04-05T01:15:00;61941.03;;;-0.59;100.00
6899;BME280;3488;42.616;23.350;2023-04-05T01:17:30;61949.09;;;-0.56;100.00
6899;BME280;3488;42.616;23.350;2023-04-05T01:20:03;61947.16;;;-0.53;100.00
6899;BME280;3488;42.616;23.350;2023-04-05T01:23:10;61933.41;;;-0.64;100.00
6899;BME280;3488;42.616;23.350;2023-04-05T01:31:59;61966.69;;;-0.32;100.00
6899;BME280;3488;42.616;23.350;2023-04-05T01:34:35;61966.69;;;-0.32;100.00
6899;BME280;3488;42.616;23.350;2023-04-05T01:37:10;61964.72;;;-0.31;100.00
6899;BME280;3488;42.616;23.350;2023-04-05T01:39:38;61956.47;;;-0.42;100.00
6899;BME280;3488;42.616;23.350;2023-04-05T01:42:06;61968.69;;;-0.32;100.00
6899;BME280;3488;42.616;23.350;2023-04-05T01:44:33;61961.06;;;-0.37;100.00
6899;BME280;3488;42.616;23.350;2023-04-05T01:47:02;61918.63;;;-0.76;100.00
6899;BME280;3488;42.616;23.350;2023-04-05T01:49:29;61924.19;;;-0.73;100.00
6899;BME280;3488;42.616;23.350;2023-04-05T01:51:58;61929.25;;;-0.71;100.00
6899;BME280;3488;42.616;23.350;2023-04-05T01:54:25;61910.81;;;-0.89;100.00
6899;BME280;3488;42.616;23.350;2023-04-05T01:56:52;61902.88;;;-0.87;100.00
6899;BME280;3488;42.616;23.350;2023-04-05T01:59:21;61920.03;;;-0.80;100.00
6899;BME280;3488;42.616;23.350;2023-04-05T02:01:50;61931.28;;;-0.69;100.00
6899;BME280;3488;42.616;23.350;2023-04-05T02:04:18;61942.13;;;-0.56;100.00
6899;BME280;3488;42.616;23.350;2023-04-05T02:06:45;61906.22;;;-0.93;100.00
6899;BME280;3488;42.616;23.350;2023-04-05T02:09:12;61888.44;;;-1.06;100.00
6899;BME280;3488;42.616;23.350;2023-04-05T02:11:39;61943.66;;;-0.54;100.00
6899;BME280;3488;42.616;23.350;2023-04-05T02:14:06;61905.72;;;-0.94;100.00
6899;BME280;3488;42.616;23.350;2023-04-05T02:16:35;61897.44;;;-1.04;100.00
6899;BME280;3488;42.616;23.350;2023-04-05T02:19:02;61928.22;;;-0.72;100.00
6899;BME280;3488;42.616;23.350;2023-04-05T02:21:31;61962.47;;;-0.41;100.00
6899;BME280;3488;42.616;23.350;2023-04-05T02:24:01;61948.25;;;-0.50;100.00
6899;BME280;3488;42.616;23.350;2023-04-05T02:26:28;61965.09;;;-0.36;100.00
6899;BME280;3488;42.616;23.350;2023-04-05T02:28:55;61971.75;;;-0.29;100.00
6899;BME280;3488;42.616;23.350;2023-04-05T02:31:22;61959.00;;;-0.39;100.00
6899;BME280;3488;42.616;23.350;2023-04-05T02:33:49;61953.78;;;-0.49;100.00
6899;BME280;3488;42.616;23.350;2023-04-05T02:36:18;61926.19;;;-0.74;100.00
6899;BME280;3488;42.616;23.350;2023-04-05T02:38:48;61938.97;;;-0.61;100.00
6899;BME280;3488;42.616;23.350;2023-04-05T02:41:15;61922.25;;;-0.70;100.00
6899;BME280;3488;42.616;23.350;2023-04-05T02:43:42;61922.09;;;-0.78;100.00
6899;BME280;3488;42.616;23.350;2023-04-05T02:46:09;61924.19;;;-0.73;100.00
6899;BME280;3488;42.616;23.350;2023-04-05T02:48:37;61926.38;;;-0.66;100.00
6899;BME280;3488;42.616;23.350;2023-04-05T02:51:04;61933.41;;;-0.64;100.00
6899;BME280;3488;42.616;23.350;2023-04-05T02:53:31;61929.25;;;-0.71;100.00
6899;BME280;3488;42.616;23.350;2023-04-05T02:56:02;61937.06;;;-0.58;100.00
6899;BME280;3488;42.616;23.350;2023-04-05T02:58:30;61927.84;;;-0.67;100.00
6899;BME280;3488;42.616;23.350;2023-04-05T03:00:58;61933.28;;;-0.69;100.00
6899;BME280;3488;42.616;23.350;2023-04-05T03:03:26;61934.50;;;-0.61;100.00
6899;BME280;3488;42.616;23.350;2023-04-05T03:05:58;61942.00;;;-0.61;100.00
6899;BME280;3488;42.616;23.350;2023-04-05T03:08:26;61936.38;;;-0.66;100.00
6899;BME280;3488;42.616;23.350;2023-04-05T03:10:53;61934.44;;;-0.63;100.00
6899;BME280;3488;42.616;23.350;2023-04-05T03:13:22;61962.03;;;-0.39;100.00
6899;BME280;3488;42.616;23.350;2023-04-05T03:15:52;61951.72;;;-0.51;100.00
6899;BME280;3488;42.616;23.350;2023-04-05T03:18:19;61949.66;;;-0.53;100.00
6899;BME280;3488;42.616;23.350;2023-04-05T03:20:46;61941.09;;;-0.57;100.00
6899;BME280;3488;42.616;23.350;2023-04-05T03:23:14;61953.97;;;-0.42;100.00
6899;BME280;3488;42.616;23.350;2023-04-05T03:25:41;61954.47;;;-0.41;100.00
6899;BME280;3488;42.616;23.350;2023-04-05T03:28:09;61958.00;;;-0.40;100.00
6899;BME280;3488;42.616;23.350;2023-04-05T03:30:37;61944.16;;;-0.54;100.00
6899;BME280;3488;42.616;23.350;2023-04-05T03:33:04;61951.34;;;-0.47;100.00
6899;BME280;3488;42.616;23.350;2023-04-05T03:35:31;61955.38;;;-0.45;100.00
6899;BME280;3488;42.616;23.350;2023-04-05T03:38:00;61938.47;;;-0.62;100.00
6899;BME280;3488;42.616;23.350;2023-04-05T03:40:27;61942.06;;;-0.58;100.00
6899;BME280;3488;42.616;23.350;2023-04-05T03:42:54;61944.66;;;-0.53;100.00
6899;BME280;3488;42.616;23.350;2023-04-05T03:45:21;61942.56;;;-0.58;100.00
6899;BME280;3488;42.616;23.350;2023-04-05T03:47:54;61950.19;;;-0.53;100.00
6899;BME280;3488;42.616;23.350;2023-04-05T03:50:21;61889.97;;;-1.04;100.00
6899;BME280;3488;42.616;23.350;2023-04-05T03:52:49;61943.59;;;-0.57;100.00
6899;BME280;3488;42.616;23.350;2023-04-05T03:55:16;61959.53;;;-0.39;100.00
6899;BME280;3488;42.616;23.350;2023-04-05T03:57:43;61971.25;;;-0.30;100.00
6899;BME280;3488;42.616;23.350;2023-04-05T04:00:11;61955.50;;;-0.40;100.00
6899;BME280;3488;42.616;23.350;2023-04-05T04:02:41;61952.34;;;-0.46;100.00
6899;BME280;3488;42.616;23.350;2023-04-05T04:05:10;61920.53;;;-0.79;100.00
6899;BME280;3488;42.616;23.350;2023-04-05T04:07:37;61925.22;;;-0.72;100.00
6899;BME280;3488;42.616;23.350;2023-04-05T04:10:07;61941.03;;;-0.59;100.00
6899;BME280;3488;42.616;23.350;2023-04-05T04:12:34;61923.75;;;-0.71;100.00
6899;BME280;3488;42.616;23.350;2023-04-05T04:15:03;61938.00;;;-0.60;100.00
6899;BME280;3488;42.616;23.350;2023-04-05T04:17:33;61921.06;;;-0.79;100.00
6899;BME280;3488;42.616;23.350;2023-04-05T04:20:01;61932.34;;;-0.68;100.00
6899;BME280;3488;42.616;23.350;2023-04-05T04:22:33;61954.78;;;-0.48;100.00
6899;BME280;3488;42.616;23.350;2023-04-05T04:25:04;61940.13;;;-0.55;100.00
6899;BME280;3488;42.616;23.350;2023-04-05T04:27:34;61938.00;;;-0.60;100.00
6899;BME280;3488;42.616;23.350;2023-04-05T04:30:06;61945.19;;;-0.53;100.00
6899;BME280;3488;42.616;23.350;2023-04-05T04:32:35;61958.00;;;-0.40;100.00
6899;BME280;3488;42.616;23.350;2023-04-05T04:35:23;61948.25;;;-0.50;100.00
6899;BME280;3488;42.616;23.350;2023-04-05T04:37:54;61956.50;;;-0.39;100.00
6899;BME280;3488;42.616;23.350;2023-04-05T04:40:22;61954.97;;;-0.41;100.00
6899;BME280;3488;42.616;23.350;2023-04-05T04:42:51;61972.78;;;-0.28;100.00
6899;BME280;3488;42.616;23.350;2023-04-05T04:45:18;61989.25;;;-0.10;100.00
6899;BME280;3488;42.616;23.350;2023-04-05T04:47:47;61979.00;;;-0.20;100.00
6899;BME280;3488;42.616;23.350;2023-04-05T04:50:15;61996.34;;;-0.05;100.00
6899;BME280;3488;42.616;23.350;2023-04-05T04:52:44;61981.09;;;-0.15;100.00
6899;BME280;3488;42.616;23.350;2023-04-05T04:55:13;61993.28;;;-0.08;100.00
6899;BME280;3488;42.616;23.350;2023-04-05T04:57:41;61994.31;;;-0.07;100.00
6899;BME280;3488;42.616;23.350;2023-04-05T05:00:09;62028.63;;;0.27;100.00
6899;BME280;3488;42.616;23.350;2023-04-05T05:02:38;62036.81;;;0.35;100.00
6899;BME280;3488;42.616;23.350;2023-04-05T05:05:07;62024.53;;;0.23;100.00
6899;BME280;3488;42.616;23.350;2023-04-05T05:07:35;62011.31;;;0.15;100.00
6899;BME280;3488;42.616;23.350;2023-04-05T05:10:04;61989.16;;;-0.12;100.00
6899;BME280;3488;42.616;23.350;2023-04-05T05:12:33;62008.59;;;0.05;100.00
6899;BME280;3488;42.616;23.350;2023-04-05T05:15:00;61989.25;;;-0.10;100.00
6899;BME280;3488;42.616;23.350;2023-04-05T05:17:27;61988.66;;;-0.13;100.00
6899;BME280;3488;42.616;23.350;2023-04-05T05:19:57;61987.13;;;-0.14;100.00
6899;BME280;3488;42.616;23.350;2023-04-05T05:22:25;61987.69;;;-0.11;100.00
6899;BME280;3488;42.616;23.350;2023-04-05T05:24:52;61993.22;;;-0.11;100.00
6899;BME280;3488;42.616;23.350;2023-04-05T05:27:19;61996.84;;;-0.05;100.00
6899;BME280;3488;42.616;23.350;2023-04-05T05:29:48;61972.28;;;-0.29;100.00
6899;BME280;3488;42.616;23.350;2023-04-05T05:32:15;61984.13;;;-0.15;100.00
6899;BME280;3488;42.616;23.350;2023-04-05T05:34:42;61999.56;;;0.03;100.00
6899;BME280;3488;42.616;23.350;2023-04-05T05:37:10;61987.13;;;-0.14;100.00
6899;BME280;3488;42.616;23.350;2023-04-05T05:39:37;61994.31;;;-0.07;100.00
6899;BME280;3488;42.616;23.350;2023-04-05T05:42:05;61991.66;;;-0.12;100.00
6899;BME280;3488;42.616;23.350;2023-04-05T05:44:32;61997.81;;;-0.06;100.00
6899;BME280;3488;42.616;23.350;2023-04-05T05:47:01;61975.41;;;-0.23;100.00
6899;BME280;3488;42.616;23.350;2023-04-05T05:49:29;61985.13;;;-0.14;100.00
6899;BME280;3488;42.616;23.350;2023-04-05T05:51:57;62000.00;;;0.01;100.00
6899;BME280;3488;42.616;23.350;2023-04-05T05:54:24;61996.94;;;-0.02;100.00
6899;BME280;3488;42.616;23.350;2023-04-05T05:56:51;62018.44;;;0.19;100.00
6899;BME280;3488;42.616;23.350;2023-04-05T05:59:18;62028.69;;;0.29;100.00
6899;BME280;3488;42.616;23.350;2023-04-05T06:01:45;62043.00;;;0.41;100.00
6899;BME280;3488;42.616;23.350;2023-04-05T06:04:14;62048.63;;;0.46;100.00
6899;BME280;3488;42.616;23.350;2023-04-05T06:06:41;62040.41;;;0.38;100.00
6899;BME280;3488;42.616;23.350;2023-04-05T06:09:11;62066.06;;;0.63;100.00
6899;BME280;3488;42.616;23.350;2023-04-05T06:11:38;62073.88;;;0.76;100.00
6899;BME280;3488;42.616;23.350;2023-04-05T06:14:05;62096.31;;;0.93;100.00
6899;BME280;3488;42.616;23.350;2023-04-05T06:16:32;62089.13;;;0.86;100.00
6899;BME280;3488;42.616;23.350;2023-04-05T06:18:59;62094.31;;;0.93;100.00
6899;BME280;3488;42.616;23.350;2023-04-05T06:21:28;62126.63;;;1.25;99.18
6899;BME280;3488;42.616;23.350;2023-04-05T06:23:55;62132.78;;;1.31;100.00
6899;BME280;3488;42.616;23.350;2023-04-05T06:26:22;62150.16;;;1.46;97.93
6899;BME280;3488;42.616;23.350;2023-04-05T06:28:51;62147.53;;;1.41;95.98
6899;BME280;3488;42.616;23.350;2023-04-05T06:31:19;62155.81;;;1.51;94.88
6899;BME280;3488;42.616;23.350;2023-04-05T06:33:46;62170.19;;;1.65;92.50
6899;BME280;3488;42.616;23.350;2023-04-05T06:36:13;62180.97;;;1.76;94.18
6899;BME280;3488;42.616;23.350;2023-04-05T06:38:42;62174.88;;;1.72;93.92
6899;BME280;3488;42.616;23.350;2023-04-05T06:41:09;62141.00;;;1.39;94.82
6899;BME280;3488;42.616;23.350;2023-04-05T06:43:36;62159.53;;;1.60;93.40
6899;BME280;3488;42.616;23.350;2023-04-05T06:46:03;62200.00;;;1.97;92.44
6899;BME280;3488;42.616;23.350;2023-04-05T06:48:33;62172.84;;;1.73;92.06
6899;BME280;3488;42.616;23.350;2023-04-05T06:51:01;62157.34;;;1.53;94.66
6899;BME280;3488;42.616;23.350;2023-04-05T06:53:30;62185.06;;;1.80;89.94
6899;BME280;3488;42.616;23.350;2023-04-05T06:55:58;62207.19;;;2.04;90.57
6899;BME280;3488;42.616;23.350;2023-04-05T06:58:25;62197.38;;;1.92;90.80
6899;BME280;3488;42.616;23.350;2023-04-05T07:00:53;62197.03;;;1.99;91.83
6899;BME280;3488;42.616;23.350;2023-04-05T07:03:20;62181.53;;;1.79;92.01
6899;BME280;3488;42.616;23.350;2023-04-05T07:05:51;62210.22;;;2.04;87.41
6899;BME280;3488;42.616;23.350;2023-04-05T07:08:19;62206.75;;;2.06;87.17
6899;BME280;3488;42.616;23.350;2023-04-05T07:10:46;62204.69;;;2.04;89.10
6899;BME280;3488;42.616;23.350;2023-04-05T07:13:15;62183.53;;;1.78;89.57
6899;BME280;3488;42.616;23.350;2023-04-05T07:15:43;62186.66;;;1.84;90.37
6899;BME280;3488;42.616;23.350;2023-04-05T07:18:10;62179.88;;;1.72;93.91
6899;BME280;3488;42.616;23.350;2023-04-05T07:20:40;62167.22;;;1.67;94.86
6899;BME280;3488;42.616;23.350;2023-04-05T07:23:07;62159.53;;;1.60;93.49
6899;BME280;3488;42.616;23.350;2023-04-05T07:25:34;62164.09;;;1.62;95.39
6899;BME280;3488;42.616;23.350;2023-04-05T07:28:01;62176.84;;;1.72;91.55
6899;BME280;3488;42.616;23.350;2023-04-05T07:30:29;62171.31;;;1.71;91.92
6899;BME280;3488;42.616;23.350;2023-04-05T07:32:56;62166.06;;;1.61;94.59
6899;BME280;3488;42.616;23.350;2023-04-05T07:35:24;62171.78;;;1.69;96.02
6899;BME280;3488;42.616;23.350;2023-04-05T07:37:51;62146.06;;;1.42;97.06
6899;BME280;3488;42.616;23.350;2023-04-05T07:40:18;62139.47;;;1.38;97.96
6899;BME280;3488;42.616;23.350;2023-04-05T07:42:45;62104.56;;;1.03;99.27
6899;BME280;3488;42.616;23.350;2023-04-05T07:45:12;62120.41;;;1.16;99.01
6899;BME280;3488;42.616;23.350;2023-04-05T07:47:40;62134.78;;;1.31;99.47
6899;BME280;3488;42.616;23.350;2023-04-05T07:50:07;62129.19;;;1.28;98.13
6899;BME280;3488;42.616;23.350;2023-04-05T07:52:39;62111.75;;;1.10;100.00
6899;BME280;3488;42.616;23.350;2023-04-05T07:55:07;62090.78;;;0.92;100.00
6899;BME280;3488;42.616;23.350;2023-04-05T07:57:34;62102.53;;;1.01;100.00
6899;BME280;3488;42.616;23.350;2023-04-05T08:00:01;62092.78;;;0.92;100.00
6899;BME280;3488;42.616;23.350;2023-04-05T08:02:28;62094.38;;;0.96;100.00
6899;BME280;3488;42.616;23.350;2023-04-05T08:04:56;62131.19;;;1.27;100.00
6899;BME280;3488;42.616;23.350;2023-04-05T08:07:24;62133.81;;;1.32;100.00
6899;BME280;3488;42.616;23.350;2023-04-05T08:09:51;62134.25;;;1.30;99.20
6899;BME280;3488;42.616;23.350;2023-04-05T08:12:22;62134.34;;;1.33;99.92
6899;BME280;3488;42.616;23.350;2023-04-05T08:14:48;62117.34;;;1.13;100.00
6899;BME280;3488;42.616;23.350;2023-04-05T08:17:15;62091.22;;;0.90;100.00
6899;BME280;3488;42.616;23.350;2023-04-05T08:19:42;62110.28;;;1.11;100.00
6899;BME280;3488;42.616;23.350;2023-04-05T08:22:11;62111.25;;;1.10;100.00
6899;BME280;3488;42.616;23.350;2023-04-05T08:24:38;62107.59;;;1.04;100.00
6899;BME280;3488;42.616;23.350;2023-04-05T08:27:05;62101.50;;;1.00;100.00
6899;BME280;3488;42.616;23.350;2023-04-05T08:29:32;62114.31;;;1.13;100.00
6899;BME280;3488;42.616;23.350;2023-04-05T08:31:58;62132.22;;;1.28;100.00
6899;BME280;3488;42.616;23.350;2023-04-05T08:34:25;62131.31;;;1.32;100.00
6899;BME280;3488;42.616;23.350;2023-04-05T08:36:53;62134.34;;;1.33;100.00
6899;BME280;3488;42.616;23.350;2023-04-05T08:39:24;62135.88;;;1.34;100.00
6899;BME280;3488;42.616;23.350;2023-04-05T08:41:55;62123.50;;;1.19;100.00
6899;BME280;3488;42.616;23.350;2023-04-05T08:44:25;62116.81;;;1.13;100.00
6899;BME280;3488;42.616;23.350;2023-04-05T08:46:58;62131.75;;;1.30;100.00
6899;BME280;3488;42.616;23.350;2023-04-05T08:49:25;62106.56;;;1.03;100.00
6899;BME280;3488;42.616;23.350;2023-04-05T08:51:54;62116.81;;;1.13;100.00
6899;BME280;3488;42.616;23.350;2023-04-05T08:54:21;62115.28;;;1.11;100.00
6899;BME280;3488;42.616;23.350;2023-04-05T08:56:50;62120.53;;;1.22;100.00
6899;BME280;3488;42.616;23.350;2023-04-05T08:59:19;62127.19;;;1.28;100.00
6899;BME280;3488;42.616;23.350;2023-04-05T09:01:48;62137.84;;;1.34;100.00
6899;BME280;3488;42.616;23.350;2023-04-05T09:04:20;62139.47;;;1.38;100.00
6899;BME280;3488;42.616;23.350;2023-04-05T09:06:49;62134.81;;;1.33;100.00
6899;BME280;3488;42.616;23.350;2023-04-05T09:09:17;62149.66;;;1.45;100.00
6899;BME280;3488;42.616;23.350;2023-04-05T09:11:44;62139.00;;;1.40;100.00
6899;BME280;3488;42.616;23.350;2023-04-05T09:14:13;62165.63;;;1.63;97.80
6899;BME280;3488;42.616;23.350;2023-04-05T09:16:41;62180.50;;;1.78;98.19
6899;BME280;3488;42.616;23.350;2023-04-05T09:19:09;62173.81;;;1.71;100.00
6899;BME280;3488;42.616;23.350;2023-04-05T09:21:58;62137.41;;;1.36;100.00
6899;BME280;3488;42.616;23.350;2023-04-05T09:24:30;62100.03;;;1.01;100.00
6899;BME280;3488;42.616;23.350;2023-04-05T09:27:05;62139.97;;;1.38;100.00
6899;BME280;3488;42.616;23.350;2023-04-05T09:29:34;62141.00;;;1.39;100.00
6899;BME280;3488;42.616;23.350;2023-04-05T09:32:02;62139.97;;;1.38;100.00
6899;BME280;3488;42.616;23.350;2023-04-05T09:34:30;62156.84;;;1.52;100.00
6899;BME280;3488;42.616;23.350;2023-04-05T09:36:58;62172.84;;;1.73;100.00
6899;BME280;3488;42.616;23.350;2023-04-05T09:39:30;62175.88;;;1.73;100.00
6899;BME280;3488;42.616;23.350;2023-04-05T09:42:05;62186.59;;;1.81;100.00
6899;BME280;3488;42.616;23.350;2023-04-05T09:44:53;62195.91;;;1.93;100.00
6899;BME280;3488;42.616;23.350;2023-04-05T09:47:21;62180.03;;;1.80;100.00
6899;BME280;3488;42.616;23.350;2023-04-05T09:49:49;62217.41;;;2.11;100.00
6899;BME280;3488;42.616;23.350;2023-04-05T09:52:20;62226.69;;;2.23;100.00
6899;BME280;3488;42.616;23.350;2023-04-05T09:54:49;62155.88;;;1.54;100.00
6899;BME280;3488;42.616;23.350;2023-04-05T09:57:17;62140.09;;;1.43;100.00
6899;BME280;3488;42.616;23.350;2023-04-05T09:59:44;62182.09;;;1.82;100.00
6899;BME280;3488;42.616;23.350;2023-04-05T10:02:14;62201.94;;;1.94;100.00
6899;BME280;3488;42.616;23.350;2023-04-05T10:04:42;62180.97;;;1.76;100.00
6899;BME280;3488;42.616;23.350;2023-04-05T10:07:12;62163.56;;;1.61;100.00
6899;BME280;3488;42.616;23.350;2023-04-05T10:09:40;62153.25;;;1.49;100.00
6899;BME280;3488;42.616;23.350;2023-04-05T10:12:08;62182.06;;;1.79;100.00
6899;BME280;3488;42.616;23.350;2023-04-05T10:14:36;62188.25;;;1.88;97.78
6899;BME280;3488;42.616;23.350;2023-04-05T10:17:07;62175.44;;;1.75;97.21
6899;BME280;3488;42.616;23.350;2023-04-05T10:19:56;62227.22;;;2.23;96.79
6899;BME280;3488;42.616;23.350;2023-04-05T10:22:31;62219.50;;;2.16;93.97
6899;BME280;3488;42.616;23.350;2023-04-05T10:25:04;62214.84;;;2.09;95.26
6899;BME280;3488;42.616;23.350;2023-04-05T10:27:34;62237.50;;;2.33;92.03
6899;BME280;3488;42.616;23.350;2023-04-05T10:30:06;62208.72;;;2.05;94.47
6899;BME280;3488;42.616;23.350;2023-04-05T10:32:45;62157.41;;;1.55;97.89
6899;BME280;3488;42.616;23.350;2023-04-05T10:35:23;62120.97;;;1.19;100.00
6899;BME280;3488;42.616;23.350;2023-04-05T10:38:02;62107.09;;;1.03;100.00
6899;BME280;3488;42.616;23.350;2023-04-05T10:40:35;62102.97;;;0.99;100.00
6899;BME280;3488;42.616;23.350;2023-04-05T10:43:03;62112.78;;;1.11;100.00
6899;BME280;3488;42.616;23.350;2023-04-05T10:45:34;62112.91;;;1.16;99.77
6899;BME280;3488;42.616;23.350;2023-04-05T10:48:08;62109.13;;;1.05;100.00
6899;BME280;3488;42.616;23.350;2023-04-05T10:50:43;62141.56;;;1.42;100.00
6899;BME280;3488;42.616;23.350;2023-04-05T10:53:14;62135.78;;;1.32;99.35
6899;BME280;3488;42.616;23.350;2023-04-05T10:55:43;62114.38;;;1.15;100.00
6899;BME280;3488;42.616;23.350;2023-04-05T10:58:12;62124.00;;;1.20;100.00
6899;BME280;3488;42.616;23.350;2023-04-05T11:00:39;62134.44;;;1.38;100.00
6899;BME280;3488;42.616;23.350;2023-04-05T11:03:07;62152.34;;;1.53;100.00
6899;BME280;3488;42.616;23.350;2023-04-05T11:05:34;62162.03;;;1.60;98.07
6899;BME280;3488;42.616;23.350;2023-04-05T11:08:05;62208.16;;;2.02;97.63
6899;BME280;3488;42.616;23.350;2023-04-05T11:10:36;62194.31;;;1.89;97.62
6899;BME280;3488;42.616;23.350;2023-04-05T11:13:08;62163.56;;;1.61;95.92
6899;BME280;3488;42.616;23.350;2023-04-05T11:15:36;62216.44;;;2.13;96.11
6899;BME280;3488;42.616;23.350;2023-04-05T11:18:06;62223.56;;;2.17;96.40
6899;BME280;3488;42.616;23.350;2023-04-05T11:20:40;62265.69;;;2.59;90.94
6899;BME280;3488;42.616;23.350;2023-04-05T11:23:11;62213.34;;;2.10;93.30
6899;BME280;3488;42.616;23.350;2023-04-05T11:25:39;62190.31;;;1.90;98.82
6899;BME280;3488;42.616;23.350;2023-04-05T11:28:07;62231.84;;;2.28;95.57
6899;BME280;3488;42.616;23.350;2023-04-05T11:30:48;62243.06;;;2.36;94.26
6899;BME280;3488;42.616;23.350;2023-04-05T11:33:35;62266.19;;;2.59;92.71
6899;BME280;3488;42.616;23.350;2023-04-05T11:36:03;62291.88;;;2.84;92.45
6899;BME280;3488;42.616;23.350;2023-04-05T11:38:32;62233.97;;;2.32;91.63
6899;BME280;3488;42.616;23.350;2023-04-05T11:41:06;62254.94;;;2.51;93.52
6899;BME280;3488;42.616;23.350;2023-04-05T11:43:33;62284.25;;;2.79;90.87
6899;BME280;3488;42.616;23.350;2023-04-05T11:46:02;62286.16;;;2.76;92.93
6899;BME280;3488;42.616;23.350;2023-04-05T11:48:30;62308.31;;;3.00;92.39
6899;BME280;3488;42.616;23.350;2023-04-05T11:50:56;62321.63;;;3.11;89.75
6899;BME280;3488;42.616;23.350;2023-04-05T11:53:23;62330.44;;;3.22;89.14
6899;BME280;3488;42.616;23.350;2023-04-05T11:55:52;62301.19;;;2.96;90.73
6899;BME280;3488;42.616;23.350;2023-04-05T11:58:21;62349.44;;;3.40;88.81
6899;BME280;3488;42.616;23.350;2023-04-05T12:00:57;62322.16;;;3.11;87.72
6899;BME280;3488;42.616;23.350;2023-04-05T12:03:26;62300.72;;;2.98;87.14
6899;BME280;3488;42.616;23.350;2023-04-05T12:05:56;62243.53;;;2.34;90.50
6899;BME280;3488;42.616;23.350;2023-04-05T12:08:37;62265.22;;;2.61;93.75
6899;BME280;3488;42.616;23.350;2023-04-05T12:11:06;62309.91;;;3.04;91.34
6899;BME280;3488;42.616;23.350;2023-04-05T12:13:35;62277.03;;;2.72;91.53
6899;BME280;3488;42.616;23.350;2023-04-05T12:16:06;62238.00;;;2.34;94.08
6899;BME280;3488;42.616;23.350;2023-04-05T12:18:35;62242.13;;;2.38;94.68
6899;BME280;3488;42.616;23.350;2023-04-05T12:21:03;62222.66;;;2.21;94.32
6899;BME280;3488;42.616;23.350;2023-04-05T12:23:31;62225.63;;;2.19;95.65
6899;BME280;3488;42.616;23.350;2023-04-05T12:25:58;62241.03;;;2.34;96.39
6899;BME280;3488;42.616;23.350;2023-04-05T12:28:48;62268.25;;;2.61;95.66
6899;BME280;3488;42.616;23.350;2023-04-05T12:31:16;62291.03;;;2.91;95.61
6899;BME280;3488;42.616;23.350;2023-04-05T12:33:43;62296.56;;;2.91;91.43
6899;BME280;3488;42.616;23.350;2023-04-05T12:36:13;62294.44;;;2.87;92.40
6899;BME280;3488;42.616;23.350;2023-04-05T12:38:40;62272.94;;;2.68;94.02
6899;BME280;3488;42.616;23.350;2023-04-05T12:41:07;62301.63;;;2.94;94.49
6899;BME280;3488;42.616;23.350;2023-04-05T12:43:39;62242.56;;;2.36;96.51
6899;BME280;3488;42.616;23.350;2023-04-05T12:46:09;62224.66;;;2.21;97.83
6899;BME280;3488;42.616;23.350;2023-04-05T12:48:37;62232.47;;;2.33;99.67
6899;BME280;3488;42.616;23.350;2023-04-05T12:51:13;62248.16;;;2.39;99.31
6899;BME280;3488;42.616;23.350;2023-04-05T12:53:44;62232.81;;;2.26;99.07
6899;BME280;3488;42.616;23.350;2023-04-05T12:56:12;62254.28;;;2.43;99.41
6899;BME280;3488;42.616;23.350;2023-04-05T12:58:42;62233.88;;;2.30;95.70
6899;BME280;3488;42.616;23.350;2023-04-05T13:01:09;62233.84;;;2.27;97.37
6899;BME280;3488;42.616;23.350;2023-04-05T13:03:37;62282.63;;;2.75;96.43
6899;BME280;3488;42.616;23.350;2023-04-05T13:06:04;62296.50;;;2.89;93.08
6899;BME280;3488;42.616;23.350;2023-04-05T13:08:31;62275.44;;;2.68;95.99
6899;BME280;3488;42.616;23.350;2023-04-05T13:10:58;62229.78;;;2.26;99.35
6899;BME280;3488;42.616;23.350;2023-04-05T13:13:26;62235.94;;;2.32;99.67
6899;BME280;3488;42.616;23.350;2023-04-05T13:15:54;62266.81;;;2.65;95.84
6899;BME280;3488;42.616;23.350;2023-04-05T13:18:21;62220.47;;;2.14;96.07
6899;BME280;3488;42.616;23.350;2023-04-05T13:20:49;62193.97;;;1.96;99.86
6899;BME280;3488;42.616;23.350;2023-04-05T13:23:16;62181.47;;;1.76;98.00
6899;BME280;3488;42.616;23.350;2023-04-05T13:25:43;62198.47;;;1.95;98.21
6899;BME280;3488;42.616;23.350;2023-04-05T13:28:11;62209.75;;;2.06;97.90